createdAt,value
2022-11-12T00:00:35.118Z,17.40
2022-11-12T00:05:50.467Z,18.80
2022-11-12T00:10:54.595Z,17.00
2022-11-12T00:15:58.663Z,20.00
2022-11-12T00:21:02.484Z,19.20
2022-11-12T00:26:06.714Z,16.30
2022-11-12T00:31:12.354Z,19.60
2022-11-12T00:36:16.001Z,17.40
2022-11-12T00:41:19.478Z,18.30
2022-11-12T00:46:23.224Z,18.30
2022-11-12T00:51:26.833Z,17.00
2022-11-12T00:56:35.366Z,18.20
2022-11-12T01:01:39.930Z,17.30
2022-11-12T01:06:44.940Z,16.10
2022-11-12T01:11:48.744Z,17.00
2022-11-12T01:16:52.304Z,18.10
2022-11-12T01:21:56.335Z,18.20
2022-11-12T01:27:00.271Z,17.50
2022-11-12T01:32:04.505Z,16.70
2022-11-12T01:37:08.421Z,19.60
2022-11-12T01:42:12.960Z,17.90
2022-11-12T01:47:22.329Z,18.90
2022-11-12T01:52:31.731Z,18.90
2022-11-12T01:57:38.156Z,17.90
2022-11-12T02:02:47.158Z,19.30
2022-11-12T02:07:52.417Z,18.10
2022-11-12T02:13:15.988Z,18.80
2022-11-12T02:18:20.088Z,17.70
2022-11-12T02:23:23.692Z,19.20
2022-11-12T02:28:28.751Z,18.20
2022-11-12T02:33:32.905Z,18.90
2022-11-12T02:38:36.523Z,18.30
2022-11-12T02:43:40.615Z,16.90
2022-11-12T02:48:45.067Z,18.00
2022-11-12T02:53:48.788Z,17.00
2022-11-12T02:58:52.525Z,18.70
2022-11-12T03:03:56.347Z,19.30
2022-11-12T03:09:00.354Z,17.80
2022-11-12T03:14:04.091Z,18.60
2022-11-12T03:19:08.863Z,18.50
2022-11-12T03:24:12.722Z,19.30
2022-11-12T03:29:16.675Z,20.20
2022-11-12T03:34:20.295Z,18.80
2022-11-12T03:39:24.376Z,19.40
2022-11-12T03:44:28.319Z,19.10
2022-11-12T03:49:31.869Z,19.70
2022-11-12T03:54:35.484Z,20.00
2022-11-12T03:59:39.061Z,20.20
2022-11-12T04:05:00.740Z,19.00
2022-11-12T04:10:05.624Z,20.10
2022-11-12T04:15:10.759Z,18.30
2022-11-12T04:20:32.899Z,17.60
2022-11-12T04:26:00.360Z,18.60
2022-11-12T04:31:04.090Z,17.80
2022-11-12T04:36:07.803Z,17.30
2022-11-12T04:41:43.821Z,17.30
2022-11-12T04:46:47.193Z,17.70
2022-11-12T04:52:05.856Z,17.10
2022-11-12T05:00:39.077Z,17.50
2022-11-12T05:10:52.138Z,15.10
2022-11-12T05:16:00.110Z,15.90
2022-11-12T05:21:21.493Z,18.20
2022-11-12T05:26:29.526Z,18.30
2022-11-12T05:31:37.456Z,16.60
2022-11-12T05:36:46.580Z,16.30
2022-11-12T05:42:11.787Z,18.30
2022-11-12T05:47:19.457Z,18.10
2022-11-12T05:57:32.065Z,18.20
2022-11-12T06:07:44.781Z,17.70
2022-11-12T06:12:52.247Z,18.20
2022-11-12T06:17:59.329Z,18.40
2022-11-12T06:23:06.999Z,18.40
2022-11-12T06:28:14.154Z,22.00
2022-11-12T06:38:26.774Z,17.00
2022-11-12T06:43:36.189Z,18.00
2022-11-12T06:48:43.860Z,19.60
2022-11-12T06:53:52.048Z,19.90
2022-11-12T06:58:59.377Z,22.10
2022-11-12T07:04:07.234Z,19.60
2022-11-12T07:09:14.494Z,22.10
2022-11-12T07:17:17.734Z,19.90
2022-11-12T07:22:25.140Z,23.80
2022-11-12T07:27:33.489Z,23.00
2022-11-12T07:32:44.993Z,23.10
2022-11-12T07:37:59.409Z,22.80
2022-11-12T07:43:06.663Z,25.50
2022-11-12T07:48:13.829Z,24.10
2022-11-12T07:58:27.275Z,22.60
2022-11-12T08:03:35.274Z,23.80
2022-11-12T08:08:42.652Z,22.50
2022-11-12T08:13:51.715Z,23.30
2022-11-12T08:18:58.962Z,22.30
2022-11-12T08:24:06.561Z,25.10
2022-11-12T08:29:13.673Z,21.60
2022-11-12T08:39:30.355Z,16.80
2022-11-12T08:44:37.459Z,19.80
2022-11-12T08:49:48.028Z,23.20
2022-11-12T08:54:55.385Z,21.20
2022-11-12T09:00:03.832Z,21.40
2022-11-12T09:05:11.941Z,19.30
2022-11-12T09:10:19.538Z,22.80
2022-11-12T09:15:37.479Z,18.30
2022-11-12T09:20:45.545Z,22.30
2022-11-12T09:25:52.548Z,22.60
2022-11-12T09:36:06.121Z,17.00
2022-11-12T09:41:28.528Z,19.50
2022-11-12T09:46:41.629Z,23.00
2022-11-12T09:51:52.594Z,21.10
2022-11-12T09:59:13.158Z,19.50
2022-11-12T10:04:40.968Z,17.10
2022-11-12T10:09:59.994Z,15.40
2022-11-12T10:15:58.488Z,14.40
2022-11-12T10:21:17.741Z,15.60
2022-11-12T10:26:28.324Z,14.00
2022-11-12T10:31:35.764Z,13.20
2022-11-12T10:36:45.480Z,12.30
2022-11-12T10:42:05.706Z,8.20
2022-11-12T10:57:21.191Z,6.70
2022-11-12T11:02:25.223Z,7.50
2022-11-12T11:07:29.436Z,7.50
2022-11-12T11:12:34.487Z,6.70
2022-11-12T11:17:38.318Z,7.20
2022-11-12T11:22:44.584Z,6.70
2022-11-12T11:28:00.510Z,8.90
2022-11-12T11:33:23.256Z,8.00
2022-11-12T11:38:41.110Z,7.10
2022-11-12T11:43:57.668Z,7.50
2022-11-12T11:49:26.229Z,6.10
2022-11-12T11:54:53.800Z,6.00
2022-11-12T12:00:10.719Z,5.00
2022-11-12T12:05:28.405Z,6.30
2022-11-12T12:11:06.951Z,8.30
2022-11-12T12:16:35.507Z,9.40
2022-11-12T12:21:44.341Z,8.70
2022-11-12T12:26:53.766Z,8.40
2022-11-12T12:32:05.631Z,10.70
2022-11-12T12:37:22.326Z,10.90
2022-11-12T12:42:29.553Z,11.60
2022-11-12T12:47:40.216Z,12.00
2022-11-12T12:53:06.137Z,12.20
2022-11-12T12:58:28.718Z,13.30
2022-11-12T13:03:57.795Z,10.60
2022-11-12T13:09:05.016Z,10.70
2022-11-12T13:14:51.848Z,9.90
2022-11-12T13:20:18.813Z,11.50
2022-11-12T13:25:28.373Z,10.20
2022-11-12T13:30:57.132Z,11.30
2022-11-12T13:36:26.086Z,10.10
2022-11-12T13:41:49.580Z,10.40
2022-11-12T13:46:55.389Z,9.00
2022-11-12T13:52:00.375Z,9.30
2022-11-12T13:57:28.528Z,9.20
2022-11-12T14:02:36.828Z,9.80
2022-11-12T14:07:53.184Z,10.20
2022-11-12T14:13:12.179Z,7.60
2022-11-12T14:18:23.227Z,10.10
2022-11-12T14:23:27.398Z,8.40
2022-11-12T14:28:34.193Z,9.60
2022-11-12T14:33:37.711Z,11.10
2022-11-12T14:38:44.831Z,11.30
2022-11-12T14:44:07.490Z,10.70
2022-11-12T14:49:21.041Z,10.00
2022-11-12T14:54:30.923Z,9.20
2022-11-12T14:59:35.925Z,8.80
2022-11-12T15:04:42.824Z,8.50
2022-11-12T15:14:49.898Z,8.40
2022-11-12T15:19:53.611Z,8.00
2022-11-12T15:25:09.331Z,9.90
2022-11-12T15:30:19.475Z,10.00
2022-11-12T15:35:38.034Z,8.60
2022-11-12T15:40:44.489Z,8.70
2022-11-12T15:45:50.266Z,8.80
2022-11-12T15:50:55.300Z,9.80
2022-11-12T15:55:59.241Z,7.40
2022-11-12T16:01:03.370Z,9.00
2022-11-12T16:06:09.939Z,11.30
2022-11-12T16:11:28.303Z,11.40
2022-11-12T16:16:33.258Z,11.10
2022-11-12T16:21:36.841Z,11.40
2022-11-12T16:26:40.602Z,11.80
2022-11-12T16:31:44.848Z,10.10
2022-11-12T16:36:49.484Z,12.70
2022-11-12T16:41:53.241Z,13.10
2022-11-12T16:46:56.716Z,17.40
2022-11-12T16:52:00.298Z,20.90
2022-11-12T16:57:04.239Z,17.80
2022-11-12T17:02:14.156Z,18.30
2022-11-12T17:07:17.761Z,18.10
2022-11-12T17:12:21.517Z,17.30
2022-11-12T17:17:25.215Z,12.10
2022-11-12T17:22:29.776Z,19.00
2022-11-12T17:27:33.489Z,16.10
2022-11-12T17:32:37.074Z,14.90
2022-11-12T17:37:40.613Z,10.30
2022-11-12T17:42:44.362Z,16.20
2022-11-12T17:47:48.183Z,17.20
2022-11-12T17:52:51.683Z,19.20
2022-11-12T17:57:55.318Z,19.00
2022-11-12T18:02:59.414Z,16.20
2022-11-12T18:08:02.929Z,19.20
2022-11-12T18:13:06.486Z,19.30
2022-11-12T18:18:09.970Z,20.90
2022-11-12T18:23:13.669Z,19.60
2022-11-12T18:40:21.478Z,17.50
2022-11-12T18:45:24.976Z,19.40
2022-11-12T18:50:28.870Z,19.30
2022-11-12T18:55:32.288Z,25.20
2022-11-12T19:00:36.353Z,22.20
2022-11-12T19:05:40.002Z,21.70
2022-11-12T19:10:43.884Z,18.80
2022-11-12T19:15:47.717Z,20.90
2022-11-12T19:20:51.919Z,19.60
2022-11-12T19:25:55.400Z,19.30
2022-11-12T19:31:02.958Z,19.70
2022-11-12T19:36:10.275Z,20.90
2022-11-12T19:41:19.646Z,17.70
2022-11-12T19:46:24.851Z,20.40
2022-11-12T19:51:30.407Z,20.30
2022-11-12T19:56:34.585Z,18.80
2022-11-12T20:01:38.139Z,22.60
2022-11-12T20:06:42.110Z,21.00
2022-11-12T20:11:45.797Z,19.10
2022-11-12T20:16:51.099Z,20.50
2022-11-12T20:21:54.561Z,22.10
2022-11-12T20:26:58.358Z,21.90
2022-11-12T20:32:02.336Z,21.70
2022-11-12T20:37:05.926Z,24.40
2022-11-12T20:42:09.594Z,22.20
2022-11-12T20:47:13.363Z,25.00
2022-11-12T20:52:16.877Z,26.40
2022-11-12T20:57:20.502Z,25.00
2022-11-12T21:02:24.524Z,24.10
2022-11-12T21:07:28.679Z,23.50
2022-11-12T21:12:32.684Z,21.70
2022-11-12T21:17:36.286Z,25.80
2022-11-12T21:22:39.945Z,25.70
2022-11-12T21:27:44.091Z,23.30
2022-11-12T21:32:47.638Z,23.70
2022-11-12T21:37:50.992Z,21.90
2022-11-12T21:42:54.582Z,21.90
2022-11-12T21:47:58.285Z,21.90
2022-11-12T21:53:01.846Z,23.90
2022-11-12T21:58:05.488Z,21.20
2022-11-12T22:03:08.933Z,22.30
2022-11-12T22:08:12.448Z,20.10
2022-11-12T22:13:31.521Z,18.70
2022-11-12T22:18:35.850Z,19.70
2022-11-12T22:23:39.994Z,20.70
2022-11-12T22:28:44.275Z,20.20
2022-11-12T22:33:48.343Z,20.40
2022-11-12T22:38:53.148Z,20.30
2022-11-12T22:43:58.462Z,18.20
2022-11-12T22:49:02.616Z,20.00
2022-11-12T22:54:08.806Z,21.80
2022-11-12T22:59:12.767Z,21.70
2022-11-12T23:04:16.282Z,21.40
2022-11-12T23:09:19.801Z,20.70
2022-11-12T23:14:23.778Z,20.80
2022-11-12T23:19:27.648Z,21.70
2022-11-12T23:24:31.258Z,23.90
2022-11-12T23:29:34.924Z,23.30
2022-11-12T23:34:38.430Z,23.20
2022-11-12T23:39:42.224Z,25.40
2022-11-12T23:44:46.045Z,20.10
2022-11-12T23:49:49.777Z,22.80
2022-11-12T23:54:53.305Z,24.90
2022-11-12T23:59:56.766Z,24.20
